Ayer, MA

1:14 AM EDT on April 26, 2017 (GMT -0400)
Washington-Highland | | Change Station

Elev 312 ft 42.56 °N, 71.59 °W | Updated 31 seconds ago

Rain
Rain
44.1 °F
Feels Like 44 °F
N
1.1
Wind Variable Wind from East

Today
High -- | Low -- °F
--% Chance of Precip.
Yesterday
High -- | Low -- °F
Precip. -- in
Pressure 30.07 in
Visibility 3.0 miles
Clouds Overcast 600 ft
Windchill 44 °F
Dew Point 42 °F
Humidity 93%
Rainfall 0.04 in
Snow Depth Not available.
5:47 AM 7:41 PM
Waning Crescent, 0% visible
METAR KFIT 260452Z AUTO VRB05KT 3SM -RA BR OVC006 08/07 A3006 RMK AO2 RAE0353B41 SLP181 P0001 T00780067 401170078
Pressure 30.07 in
Visibility 3.0 miles
Clouds Overcast 600 ft
Windchill 44 °F
Dew Point 42 °F
Humidity 93%
Rainfall 0.04 in
Snow Depth Not available.
5:47 AM 7:41 PM
Waning Crescent, 0% visible
METAR KFIT 260452Z AUTO VRB05KT 3SM -RA BR OVC006 08/07 A3006 RMK AO2 RAE0353B41 SLP181 P0001 T00780067 401170078

Get Severe Weather Alerts

Thanks for signing up!

Be on the lookout for a verification email in your inbox.

You'll start receiving the daily forecast at 8 AM.

×

10-Day Weather Forecast

Almanac

Astronomy

Apr. 26, 2017 Rise Set
Actual Time
Civil Twilight
Nautical Twilight
Astronomical Twilight
Moon
Length of Visible Light
Length of Day
Tomorrow will be .
, % of the Moon is Illuminated

Today's Extremes

State Highs State Lows

Community

WunderPhotos

WunderBlog® & News

Nearby

Air Quality

  Air Quality AQ Index Pollutant
Not available.

Snow Depth

Station Depth Elevation

Earthquake Activity

City Distance Mag. Time & Date
Minimum magnitude displayed is 2.5.

Coastal Water Temperatures

Place Temperature

Stations

Nearby Weather Stations

Station Location Temp. Windchill Dew Point Humidity Wind Precip. Elev Updated Type
                   

Watches & Warnings

There are currently no watches in effect.